createdAt,value
2022-09-20T00:00:19.335Z,0
2022-09-20T00:01:18.410Z,0
2022-09-20T00:03:18.305Z,0
2022-09-20T00:04:18.317Z,0
2022-09-20T00:05:18.413Z,0
2022-09-20T00:06:18.309Z,0
2022-09-20T00:07:18.317Z,0
2022-09-20T00:08:18.317Z,0
2022-09-20T00:09:18.312Z,0
2022-09-20T00:10:18.311Z,0
2022-09-20T00:11:18.875Z,0
2022-09-20T00:12:18.322Z,0
2022-09-20T00:13:18.320Z,0
2022-09-20T00:14:18.307Z,5
2022-09-20T00:15:18.308Z,0
2022-09-20T00:16:18.371Z,0
2022-09-20T00:17:18.374Z,0
2022-09-20T00:19:18.317Z,0
2022-09-20T00:20:18.316Z,0
2022-09-20T00:21:18.316Z,0
2022-09-20T00:22:18.309Z,0
2022-09-20T00:23:18.333Z,0
2022-09-20T00:24:18.311Z,0
2022-09-20T00:26:18.304Z,0
2022-09-20T00:27:18.325Z,2
2022-09-20T00:28:18.309Z,0
2022-09-20T00:29:18.335Z,3
2022-09-20T00:30:18.324Z,4
2022-09-20T00:31:18.407Z,0
2022-09-20T00:32:18.314Z,0
2022-09-20T00:33:18.334Z,0
2022-09-20T00:34:18.312Z,0
2022-09-20T00:35:18.316Z,0
2022-09-20T00:36:18.352Z,0
2022-09-20T00:37:18.322Z,0
2022-09-20T00:38:18.322Z,0
2022-09-20T00:39:18.319Z,0
2022-09-20T00:40:18.375Z,0
2022-09-20T00:41:18.322Z,0
2022-09-20T00:42:18.313Z,0
2022-09-20T00:43:18.314Z,0
2022-09-20T00:44:18.322Z,0
2022-09-20T00:45:18.315Z,0
2022-09-20T00:46:18.368Z,0
2022-09-20T00:47:18.334Z,0
2022-09-20T00:48:18.316Z,0
2022-09-20T00:49:18.322Z,0
2022-09-20T00:50:18.321Z,0
2022-09-20T00:51:18.321Z,0
2022-09-20T00:52:18.337Z,0
2022-09-20T00:53:18.323Z,0
2022-09-20T00:54:20.493Z,0
2022-09-20T00:55:18.322Z,0
2022-09-20T00:56:18.323Z,0
2022-09-20T00:57:18.323Z,0
2022-09-20T00:58:18.319Z,0
2022-09-20T00:59:18.319Z,0
2022-09-20T01:00:18.319Z,0
2022-09-20T01:01:18.385Z,0
2022-09-20T01:02:18.385Z,0
2022-09-20T01:03:18.329Z,0
2022-09-20T01:05:18.314Z,0
2022-09-20T01:06:18.314Z,0
2022-09-20T01:07:18.349Z,0
2022-09-20T01:08:18.326Z,0
2022-09-20T01:09:18.319Z,0
2022-09-20T01:10:18.327Z,0
2022-09-20T01:12:18.350Z,0
2022-09-20T01:13:18.322Z,0
2022-09-20T01:14:18.324Z,0
2022-09-20T01:15:18.319Z,0
2022-09-20T01:16:18.367Z,0
2022-09-20T01:17:18.322Z,0
2022-09-20T01:18:18.322Z,0
2022-09-20T01:19:18.330Z,0
2022-09-20T01:20:18.323Z,0
2022-09-20T01:21:18.330Z,0
2022-09-20T01:22:18.322Z,0
2022-09-20T01:23:18.327Z,0
2022-09-20T01:24:18.322Z,0
2022-09-20T01:25:18.329Z,0
2022-09-20T01:26:18.333Z,0
2022-09-20T01:27:18.320Z,0
2022-09-20T01:28:18.327Z,0
2022-09-20T01:29:18.347Z,0
2022-09-20T01:30:18.325Z,0
2022-09-20T01:31:18.449Z,0
2022-09-20T01:32:18.323Z,0
2022-09-20T01:33:18.320Z,0
2022-09-20T01:34:18.324Z,0
2022-09-20T01:35:18.317Z,0
2022-09-20T01:36:18.332Z,0
2022-09-20T01:37:18.330Z,0
2022-09-20T01:38:18.350Z,0
2022-09-20T01:39:18.325Z,0
2022-09-20T01:40:18.357Z,0
2022-09-20T01:41:18.339Z,0
2022-09-20T01:42:18.317Z,0
2022-09-20T01:43:18.326Z,0
2022-09-20T01:44:18.334Z,0
2022-09-20T01:45:18.334Z,0
2022-09-20T01:46:18.396Z,0
2022-09-20T01:47:18.329Z,0
2022-09-20T01:48:18.329Z,0
2022-09-20T01:49:18.327Z,0
2022-09-20T01:50:18.324Z,0
2022-09-20T01:51:18.328Z,0
2022-09-20T01:52:18.325Z,0
2022-09-20T01:53:18.329Z,0
2022-09-20T01:54:18.330Z,0
2022-09-20T01:55:18.330Z,0
2022-09-20T01:56:18.335Z,0
2022-09-20T01:57:18.327Z,0
2022-09-20T01:58:18.324Z,0
2022-09-20T01:59:24.148Z,0
2022-09-20T02:00:18.324Z,0
2022-09-20T02:01:18.427Z,0
2022-09-20T02:02:18.409Z,0
2022-09-20T02:03:18.359Z,0
2022-09-20T02:04:18.339Z,0
2022-09-20T02:05:18.328Z,0
2022-09-20T02:06:18.330Z,0
2022-09-20T02:07:18.330Z,0
2022-09-20T02:08:18.328Z,0
2022-09-20T02:09:18.352Z,0
2022-09-20T02:12:18.327Z,0
2022-09-20T02:13:18.329Z,0
2022-09-20T02:14:18.337Z,0
2022-09-20T02:15:18.336Z,0
2022-09-20T02:16:18.436Z,0
2022-09-20T02:17:18.326Z,0
2022-09-20T02:18:18.327Z,0
2022-09-20T02:19:18.332Z,0
2022-09-20T02:20:18.328Z,0
2022-09-20T02:21:18.324Z,0
2022-09-20T02:22:18.337Z,0
2022-09-20T02:23:18.330Z,0
2022-09-20T02:24:18.332Z,0
2022-09-20T02:26:18.333Z,0
2022-09-20T02:27:18.390Z,0
2022-09-20T02:28:18.334Z,0
2022-09-20T02:29:18.337Z,0
2022-09-20T02:30:18.335Z,0
2022-09-20T02:32:18.333Z,0
2022-09-20T02:33:18.337Z,0
2022-09-20T02:34:18.331Z,0
2022-09-20T02:36:18.330Z,0
2022-09-20T02:37:18.333Z,0
2022-09-20T02:38:18.338Z,0
2022-09-20T02:39:18.376Z,0
2022-09-20T02:40:18.434Z,7
2022-09-20T02:41:18.330Z,0
2022-09-20T02:42:18.342Z,0
2022-09-20T02:43:18.337Z,0
2022-09-20T02:44:18.341Z,0
2022-09-20T02:45:18.341Z,0
2022-09-20T02:46:18.414Z,0
2022-09-20T02:47:18.339Z,0
2022-09-20T02:48:18.334Z,0
2022-09-20T02:49:18.333Z,0
2022-09-20T02:50:18.334Z,0
2022-09-20T02:51:18.340Z,0
2022-09-20T02:53:18.338Z,0
2022-09-20T02:54:18.333Z,0
2022-09-20T02:55:18.337Z,0
2022-09-20T02:56:18.340Z,0
2022-09-20T02:57:18.342Z,0
2022-09-20T02:58:18.336Z,0
2022-09-20T02:59:18.341Z,0
2022-09-20T03:00:18.334Z,0
2022-09-20T03:01:18.406Z,0
2022-09-20T03:02:18.444Z,0
2022-09-20T03:03:18.344Z,0
2022-09-20T03:04:18.338Z,0
2022-09-20T03:05:18.344Z,0
2022-09-20T03:06:18.344Z,0
2022-09-20T03:07:18.340Z,0
2022-09-20T03:08:18.340Z,0
2022-09-20T03:09:18.339Z,0
2022-09-20T03:10:18.338Z,0
2022-09-20T03:11:18.367Z,0
2022-09-20T03:12:18.346Z,0
2022-09-20T03:13:18.415Z,0
2022-09-20T03:14:18.343Z,0
2022-09-20T03:15:18.339Z,0
2022-09-20T03:16:18.417Z,0
2022-09-20T03:17:18.339Z,0
2022-09-20T03:18:18.350Z,0
2022-09-20T03:19:18.343Z,0
2022-09-20T03:20:18.365Z,0
2022-09-20T03:21:18.347Z,0
2022-09-20T03:22:18.340Z,0
2022-09-20T03:23:18.349Z,0
2022-09-20T03:24:18.346Z,0
2022-09-20T03:25:18.350Z,0
2022-09-20T03:26:18.344Z,0
2022-09-20T03:27:18.354Z,0
2022-09-20T03:28:18.345Z,0
2022-09-20T03:29:18.352Z,0
2022-09-20T03:30:18.352Z,0
2022-09-20T03:31:18.350Z,0
2022-09-20T03:32:18.455Z,0
2022-09-20T03:33:18.339Z,0
2022-09-20T03:34:18.346Z,0
2022-09-20T03:35:18.350Z,0
2022-09-20T03:36:18.346Z,0
2022-09-20T03:37:18.355Z,0
2022-09-20T03:38:18.344Z,0
2022-09-20T03:39:18.350Z,0
2022-09-20T03:40:18.395Z,0
2022-09-20T03:41:18.367Z,0
2022-09-20T03:42:18.367Z,0
2022-09-20T03:43:18.354Z,0
2022-09-20T03:44:18.348Z,0
2022-09-20T03:45:18.342Z,0
2022-09-20T03:46:18.419Z,0
2022-09-20T03:47:18.343Z,0
2022-09-20T03:48:18.355Z,0
2022-09-20T03:49:19.189Z,0
2022-09-20T03:50:18.382Z,0
2022-09-20T03:51:18.348Z,0
2022-09-20T03:52:18.354Z,0
2022-09-20T03:53:18.345Z,0
2022-09-20T03:54:18.356Z,0
2022-09-20T03:55:18.347Z,11
2022-09-20T03:56:18.350Z,0
2022-09-20T03:57:18.347Z,0
2022-09-20T03:58:18.350Z,0
2022-09-20T03:59:18.363Z,0
2022-09-20T04:00:18.351Z,14
2022-09-20T04:01:18.418Z,0
2022-09-20T04:02:18.425Z,0
2022-09-20T04:03:18.348Z,0
2022-09-20T04:05:18.353Z,13
2022-09-20T04:06:18.354Z,0
2022-09-20T04:07:18.353Z,0
2022-09-20T04:08:18.349Z,13
2022-09-20T04:09:18.349Z,13
2022-09-20T04:10:18.356Z,10
2022-09-20T04:11:18.368Z,11
2022-09-20T04:12:18.357Z,10
2022-09-20T04:13:18.384Z,11
2022-09-20T04:14:18.357Z,10
2022-09-20T04:15:18.352Z,11
2022-09-20T04:16:18.412Z,11
2022-09-20T04:17:18.349Z,11
2022-09-20T04:18:18.415Z,10
2022-09-20T04:19:18.346Z,13
2022-09-20T04:20:18.355Z,12
2022-09-20T04:21:18.357Z,0
2022-09-20T04:22:18.345Z,12
2022-09-20T04:23:18.348Z,11
2022-09-20T04:24:18.349Z,12
2022-09-20T04:26:18.356Z,0
2022-09-20T04:27:18.353Z,0
2022-09-20T04:28:18.365Z,10
2022-09-20T04:29:18.349Z,10
2022-09-20T04:30:18.356Z,0
2022-09-20T04:31:20.743Z,0
2022-09-20T04:32:18.397Z,0
2022-09-20T04:33:18.364Z,0
2022-09-20T04:34:18.357Z,0
2022-09-20T04:35:18.354Z,0
2022-09-20T04:36:18.357Z,0
2022-09-20T04:37:18.358Z,0
2022-09-20T04:38:18.355Z,9
2022-09-20T04:39:18.354Z,9
2022-09-20T04:40:18.448Z,8
2022-09-20T04:41:18.351Z,9
2022-09-20T04:42:18.353Z,0
2022-09-20T04:43:18.357Z,8
2022-09-20T04:44:18.455Z,0
2022-09-20T04:45:18.356Z,8
2022-09-20T04:47:18.355Z,0
2022-09-20T04:48:18.358Z,0
2022-09-20T04:49:18.363Z,9
2022-09-20T04:50:18.357Z,0
2022-09-20T04:51:18.352Z,8
2022-09-20T04:52:18.357Z,11
2022-09-20T04:53:18.358Z,8
2022-09-20T04:54:18.353Z,8
2022-09-20T04:55:18.356Z,8
2022-09-20T04:56:18.358Z,0
2022-09-20T04:57:18.354Z,9
2022-09-20T04:58:18.367Z,8
2022-09-20T04:59:18.373Z,0
2022-09-20T05:00:18.358Z,9
2022-09-20T05:01:18.459Z,9
2022-09-20T05:02:18.431Z,11
2022-09-20T05:03:18.358Z,12
2022-09-20T05:04:18.369Z,12
2022-09-20T05:05:18.361Z,11
2022-09-20T05:06:18.354Z,12
2022-09-20T05:07:18.351Z,10
2022-09-20T05:08:18.371Z,9
2022-09-20T05:09:18.367Z,9
2022-09-20T05:10:18.358Z,8
2022-09-20T05:11:18.362Z,10
2022-09-20T05:12:18.353Z,9
2022-09-20T05:13:18.368Z,8
2022-09-20T05:14:18.459Z,9
2022-09-20T05:15:18.389Z,9
2022-09-20T05:16:18.501Z,10
2022-09-20T05:17:18.361Z,7
2022-09-20T05:18:18.370Z,8
2022-09-20T05:19:18.361Z,8
2022-09-20T05:20:18.364Z,8
2022-09-20T05:21:18.363Z,11
2022-09-20T05:22:18.364Z,8
2022-09-20T05:23:18.359Z,0
2022-09-20T05:24:18.371Z,0
2022-09-20T05:25:18.365Z,0
2022-09-20T05:26:18.363Z,0
2022-09-20T05:27:18.365Z,0
2022-09-20T05:28:18.367Z,0
2022-09-20T05:29:18.371Z,0
2022-09-20T05:30:18.364Z,0
2022-09-20T05:31:18.422Z,0
2022-09-20T05:32:18.366Z,0
2022-09-20T05:33:18.361Z,0
2022-09-20T05:34:18.361Z,0
2022-09-20T05:35:18.360Z,0
2022-09-20T05:36:18.368Z,0
2022-09-20T05:37:18.375Z,0
2022-09-20T05:38:18.454Z,0
2022-09-20T05:39:18.384Z,0
2022-09-20T05:40:18.415Z,0
2022-09-20T05:41:18.368Z,0
2022-09-20T05:42:18.365Z,0
2022-09-20T05:43:18.373Z,0
2022-09-20T05:44:18.368Z,0
2022-09-20T05:45:18.369Z,0
2022-09-20T05:46:18.407Z,0
2022-09-20T05:47:18.376Z,0
2022-09-20T05:48:18.377Z,0
2022-09-20T05:49:18.392Z,0
2022-09-20T05:50:18.373Z,0
2022-09-20T05:51:18.363Z,0
2022-09-20T05:52:18.367Z,0
2022-09-20T05:53:18.370Z,0
2022-09-20T05:54:18.372Z,0
2022-09-20T05:55:18.368Z,0
2022-09-20T05:56:18.372Z,0
2022-09-20T05:57:18.365Z,0
2022-09-20T05:58:18.381Z,0
2022-09-20T05:59:18.370Z,0
2022-09-20T06:01:18.433Z,0
2022-09-20T06:02:18.417Z,0
2022-09-20T06:03:18.366Z,0
2022-09-20T06:04:18.377Z,0
2022-09-20T06:05:18.373Z,0
2022-09-20T06:06:18.399Z,0
2022-09-20T06:07:18.372Z,0
2022-09-20T06:08:18.374Z,0
2022-09-20T06:09:18.368Z,0
2022-09-20T06:10:18.391Z,0
2022-09-20T06:11:18.373Z,0
2022-09-20T06:12:18.368Z,0
2022-09-20T06:13:18.371Z,0
2022-09-20T06:14:18.372Z,0
2022-09-20T06:15:18.380Z,0
2022-09-20T06:16:18.444Z,0
2022-09-20T06:17:18.402Z,0
2022-09-20T06:18:18.381Z,0
2022-09-20T06:19:18.372Z,0
2022-09-20T06:20:18.375Z,0
2022-09-20T06:22:18.364Z,0
2022-09-20T06:23:18.394Z,0
2022-09-20T06:24:18.368Z,0
2022-09-20T06:25:18.368Z,0
2022-09-20T06:26:18.375Z,0
2022-09-20T06:27:18.379Z,0
2022-09-20T06:28:18.370Z,0
2022-09-20T06:29:18.373Z,0
2022-09-20T06:30:18.489Z,0
2022-09-20T06:31:18.370Z,0
2022-09-20T06:32:18.374Z,0
2022-09-20T06:33:18.387Z,0
2022-09-20T06:34:18.380Z,0
2022-09-20T06:35:18.393Z,0
2022-09-20T06:36:18.376Z,0
2022-09-20T06:37:18.371Z,0
2022-09-20T06:38:18.387Z,0
2022-09-20T06:39:18.381Z,0
2022-09-20T06:40:18.437Z,0
2022-09-20T06:41:18.376Z,0
2022-09-20T06:42:18.376Z,0
2022-09-20T06:43:18.373Z,0
2022-09-20T06:44:18.376Z,0
2022-09-20T06:45:18.385Z,0
2022-09-20T06:46:18.507Z,0
2022-09-20T06:47:18.414Z,0
2022-09-20T06:48:18.500Z,0
2022-09-20T06:49:18.383Z,0
2022-09-20T06:50:18.374Z,0
2022-09-20T06:51:18.382Z,0
2022-09-20T06:53:18.381Z,0
2022-09-20T06:54:18.373Z,0
2022-09-20T06:55:18.382Z,0
2022-09-20T06:56:18.382Z,0
2022-09-20T06:57:18.410Z,0
2022-09-20T06:58:18.382Z,0
2022-09-20T06:59:18.375Z,0
2022-09-20T07:00:18.386Z,0
2022-09-20T07:01:29.342Z,0
2022-09-20T07:02:18.431Z,0
2022-09-20T07:03:18.376Z,0
2022-09-20T07:04:18.463Z,0
2022-09-20T07:05:18.384Z,0
2022-09-20T07:06:18.379Z,0
2022-09-20T07:07:18.381Z,0
2022-09-20T07:08:18.380Z,0
2022-09-20T07:09:18.388Z,0
2022-09-20T07:10:18.381Z,0
2022-09-20T07:11:18.379Z,0
2022-09-20T07:12:18.384Z,0
2022-09-20T07:13:18.378Z,0
2022-09-20T07:14:18.387Z,0
2022-09-20T07:15:18.384Z,0
2022-09-20T07:16:18.439Z,7
2022-09-20T07:17:18.374Z,6
2022-09-20T07:18:18.383Z,0
2022-09-20T07:19:18.411Z,0
2022-09-20T07:20:21.519Z,0
2022-09-20T07:21:18.403Z,0
2022-09-20T07:22:18.382Z,0
2022-09-20T07:23:18.386Z,7
2022-09-20T07:24:18.385Z,6
2022-09-20T07:25:18.389Z,4
2022-09-20T07:26:18.382Z,5
2022-09-20T07:27:18.387Z,0
2022-09-20T07:28:18.388Z,6
2022-09-20T07:29:18.380Z,5
2022-09-20T07:30:18.376Z,0
2022-09-20T07:31:18.456Z,0
2022-09-20T07:32:18.385Z,0
2022-09-20T07:33:18.409Z,0
2022-09-20T07:34:18.388Z,0
2022-09-20T07:35:18.401Z,0
2022-09-20T07:36:18.389Z,0
2022-09-20T07:39:18.381Z,0
2022-09-20T07:40:18.437Z,0
2022-09-20T07:41:18.385Z,0
2022-09-20T07:42:19.200Z,0
2022-09-20T07:43:18.387Z,0
2022-09-20T07:44:18.385Z,0
2022-09-20T07:45:18.391Z,0
2022-09-20T07:46:18.393Z,0
2022-09-20T07:47:18.387Z,0
2022-09-20T07:48:18.385Z,0
2022-09-20T07:49:18.383Z,0
2022-09-20T07:50:18.422Z,0
2022-09-20T07:51:18.396Z,0
2022-09-20T07:52:18.395Z,0
2022-09-20T07:53:18.390Z,0
2022-09-20T07:54:18.389Z,0
2022-09-20T07:55:18.393Z,0
2022-09-20T07:56:18.448Z,0
2022-09-20T07:57:18.394Z,0
2022-09-20T07:58:18.429Z,0
2022-09-20T08:00:18.393Z,0
2022-09-20T08:01:18.457Z,0
2022-09-20T08:02:18.495Z,0
2022-09-20T08:03:18.396Z,0
2022-09-20T08:04:18.396Z,0
2022-09-20T08:05:18.394Z,0
2022-09-20T08:06:18.463Z,0
2022-09-20T08:07:18.399Z,0
2022-09-20T08:08:18.396Z,0
2022-09-20T08:09:18.396Z,0
2022-09-20T08:10:18.401Z,0
2022-09-20T08:11:18.400Z,0
2022-09-20T08:14:18.585Z,0
2022-09-20T08:16:18.446Z,0
2022-09-20T08:17:18.396Z,0
2022-09-20T08:18:18.392Z,0
2022-09-20T08:19:18.412Z,0
2022-09-20T08:20:18.401Z,0
2022-09-20T08:21:18.431Z,0
2022-09-20T08:23:23.850Z,0
2022-09-20T08:24:18.396Z,0
2022-09-20T08:25:18.393Z,0
2022-09-20T08:26:18.415Z,0
2022-09-20T08:27:18.404Z,0
2022-09-20T08:28:18.400Z,0
2022-09-20T08:29:18.391Z,0
2022-09-20T08:30:18.400Z,0
2022-09-20T08:31:18.416Z,0
2022-09-20T08:32:18.395Z,0
2022-09-20T08:33:18.403Z,0
2022-09-20T08:34:18.396Z,0
2022-09-20T08:35:18.403Z,0
2022-09-20T08:36:18.400Z,0
2022-09-20T08:37:18.393Z,0
2022-09-20T08:40:18.472Z,0
2022-09-20T08:41:18.397Z,0
2022-09-20T08:44:18.403Z,0
2022-09-20T08:45:35.012Z,0
2022-09-20T08:46:23.202Z,0
2022-09-20T08:47:18.398Z,0
2022-09-20T08:48:18.401Z,0
2022-09-20T08:49:18.409Z,0
2022-09-20T08:50:18.407Z,0
2022-09-20T08:51:22.760Z,0
2022-09-20T08:52:18.425Z,0
2022-09-20T08:53:21.230Z,0
2022-09-20T08:54:18.400Z,0
2022-09-20T08:55:18.416Z,0
2022-09-20T08:56:18.406Z,0
2022-09-20T08:57:18.395Z,0
2022-09-20T08:58:18.404Z,0
2022-09-20T08:59:18.403Z,0
2022-09-20T09:00:18.472Z,0
2022-09-20T09:01:18.462Z,0
2022-09-20T09:02:18.477Z,0
2022-09-20T09:03:18.396Z,0
2022-09-20T09:05:18.414Z,0
2022-09-20T09:06:18.667Z,0
2022-09-20T09:07:18.402Z,0
2022-09-20T09:08:18.958Z,0
2022-09-20T09:09:18.410Z,0
2022-09-20T09:10:18.415Z,0
2022-09-20T09:11:18.403Z,0
2022-09-20T09:12:18.403Z,0
2022-09-20T09:13:18.409Z,0
2022-09-20T09:14:18.409Z,0
2022-09-20T09:15:18.402Z,0
2022-09-20T09:16:23.134Z,0
2022-09-20T09:17:18.408Z,0
2022-09-20T09:18:18.409Z,0
2022-09-20T09:19:18.405Z,0
2022-09-20T09:20:18.409Z,0
2022-09-20T09:21:18.417Z,0
2022-09-20T09:22:18.406Z,0
2022-09-20T09:23:18.440Z,0
2022-09-20T09:24:18.408Z,0
2022-09-20T09:25:18.403Z,0
2022-09-20T09:26:18.423Z,0
2022-09-20T09:27:18.427Z,0
2022-09-20T09:28:18.408Z,0
2022-09-20T09:29:18.409Z,0
2022-09-20T09:30:18.412Z,0
2022-09-20T09:31:18.522Z,1
2022-09-20T09:32:18.413Z,2
2022-09-20T09:33:18.408Z,3
2022-09-20T09:34:18.407Z,8
2022-09-20T09:35:18.428Z,0
2022-09-20T09:36:18.413Z,0
2022-09-20T09:37:18.422Z,0
2022-09-20T09:38:18.408Z,0
2022-09-20T09:39:18.408Z,0
2022-09-20T09:40:18.566Z,0
2022-09-20T09:41:18.440Z,0
2022-09-20T09:43:18.431Z,0
2022-09-20T09:44:18.428Z,0
2022-09-20T09:45:18.424Z,0
2022-09-20T09:46:18.541Z,0
2022-09-20T09:47:18.418Z,0
2022-09-20T09:48:18.417Z,0
2022-09-20T09:49:18.424Z,0
2022-09-20T09:50:18.417Z,0
2022-09-20T09:51:18.413Z,0
2022-09-20T09:52:18.414Z,0
2022-09-20T09:53:18.413Z,0
2022-09-20T09:54:18.443Z,0
2022-09-20T09:55:18.413Z,0
2022-09-20T09:56:18.411Z,7
2022-09-20T09:57:18.420Z,0
2022-09-20T09:58:18.418Z,0
2022-09-20T09:59:18.412Z,8
2022-09-20T10:00:21.879Z,23
2022-09-20T10:01:18.445Z,8
2022-09-20T10:02:18.490Z,28
2022-09-20T10:03:18.409Z,24
2022-09-20T10:05:18.487Z,0
2022-09-20T10:06:18.423Z,0
2022-09-20T10:07:18.424Z,0
2022-09-20T10:08:18.415Z,0
2022-09-20T10:09:18.415Z,0
2022-09-20T10:10:18.426Z,0
2022-09-20T10:11:18.420Z,0
2022-09-20T10:12:18.416Z,0
2022-09-20T10:13:18.425Z,0
2022-09-20T10:14:18.419Z,0
2022-09-20T10:15:18.419Z,1
2022-09-20T10:17:18.455Z,21
2022-09-20T10:18:18.419Z,81
2022-09-20T10:19:22.062Z,86
2022-09-20T10:20:18.423Z,69
2022-09-20T10:21:18.422Z,77
2022-09-20T10:22:18.428Z,58
2022-09-20T10:24:18.420Z,47
2022-09-20T10:25:18.455Z,42
2022-09-20T10:26:18.417Z,50
2022-09-20T10:27:18.420Z,90
2022-09-20T10:28:18.427Z,84
2022-09-20T10:29:18.425Z,173
2022-09-20T10:30:18.422Z,147
2022-09-20T10:31:21.191Z,193
2022-09-20T10:32:18.429Z,178
2022-09-20T10:33:18.426Z,209
2022-09-20T10:34:18.431Z,332
2022-09-20T10:35:18.427Z,294
2022-09-20T10:36:18.430Z,229
2022-09-20T10:38:18.435Z,119
2022-09-20T10:39:18.429Z,83
2022-09-20T10:40:18.489Z,162
2022-09-20T10:41:18.810Z,80
2022-09-20T10:42:18.424Z,26
2022-09-20T10:43:18.432Z,0
2022-09-20T10:44:18.445Z,0
2022-09-20T10:45:36.322Z,0
2022-09-20T10:46:31.988Z,8
2022-09-20T10:47:18.475Z,0
2022-09-20T10:48:18.432Z,0
2022-09-20T10:49:18.436Z,0
2022-09-20T10:50:18.421Z,0
2022-09-20T10:51:18.509Z,0
2022-09-20T10:52:18.435Z,0
2022-09-20T10:53:18.436Z,0
2022-09-20T10:54:18.431Z,0
2022-09-20T10:55:18.435Z,0
2022-09-20T10:57:18.426Z,0
2022-09-20T10:58:18.446Z,0
2022-09-20T10:59:18.437Z,0
2022-09-20T11:00:18.435Z,0
2022-09-20T11:01:18.473Z,0
2022-09-20T11:02:18.511Z,0
2022-09-20T11:03:18.439Z,0
2022-09-20T11:04:18.432Z,0
2022-09-20T11:05:18.443Z,0
2022-09-20T11:06:18.435Z,0
2022-09-20T11:07:18.440Z,0
2022-09-20T11:08:18.433Z,0
2022-09-20T11:10:18.454Z,0
2022-09-20T11:11:18.428Z,0
2022-09-20T11:12:18.438Z,0
2022-09-20T11:13:18.437Z,0
2022-09-20T11:14:18.446Z,0
2022-09-20T11:15:18.469Z,0
2022-09-20T11:16:18.528Z,0
2022-09-20T11:17:18.437Z,0
2022-09-20T11:18:18.450Z,0
2022-09-20T11:20:18.443Z,65
2022-09-20T11:21:18.441Z,0
2022-09-20T11:22:18.437Z,36
2022-09-20T11:23:18.444Z,121
2022-09-20T11:24:18.436Z,59
2022-09-20T11:25:21.531Z,468
2022-09-20T11:26:18.441Z,0
2022-09-20T11:27:18.487Z,9
2022-09-20T11:28:18.438Z,5
2022-09-20T11:29:18.442Z,142
2022-09-20T11:30:18.473Z,260
2022-09-20T11:31:18.479Z,0
2022-09-20T11:32:18.437Z,219
2022-09-20T11:33:18.447Z,195
2022-09-20T11:34:18.439Z,180
2022-09-20T11:35:18.438Z,171
2022-09-20T11:36:18.834Z,195
2022-09-20T11:37:18.437Z,142
2022-09-20T11:38:18.440Z,0
2022-09-20T11:41:18.440Z,107
2022-09-20T11:42:18.435Z,0
2022-09-20T11:44:18.444Z,21
2022-09-20T11:45:18.442Z,0
2022-09-20T11:46:18.520Z,34
2022-09-20T11:47:36.575Z,0
2022-09-20T11:48:18.437Z,14
2022-09-20T11:49:18.453Z,60
2022-09-20T11:50:18.442Z,17
2022-09-20T11:51:18.443Z,44
2022-09-20T11:52:18.444Z,98
2022-09-20T11:53:18.448Z,43
2022-09-20T11:54:18.444Z,167
2022-09-20T11:55:18.448Z,118
2022-09-20T11:56:18.455Z,78
2022-09-20T11:57:18.457Z,163
2022-09-20T11:58:18.467Z,364
2022-09-20T11:59:18.460Z,157
2022-09-20T12:00:18.454Z,0
2022-09-20T12:02:18.951Z,0
2022-09-20T12:03:18.517Z,0
2022-09-20T12:04:32.512Z,0
2022-09-20T12:05:18.473Z,0
2022-09-20T12:06:18.447Z,0
2022-09-20T12:07:18.634Z,0
2022-09-20T12:08:18.451Z,0
2022-09-20T12:09:18.452Z,89
2022-09-20T12:10:18.449Z,201
2022-09-20T12:11:18.452Z,188
2022-09-20T12:12:18.444Z,0
2022-09-20T12:13:18.459Z,26
2022-09-20T12:14:18.446Z,224
2022-09-20T12:15:18.454Z,155
2022-09-20T12:16:18.472Z,429
2022-09-20T12:17:18.453Z,342
2022-09-20T12:18:18.452Z,284
2022-09-20T12:19:18.454Z,278
2022-09-20T12:20:19.397Z,269
2022-09-20T12:21:18.455Z,225
2022-09-20T12:22:18.452Z,251
2022-09-20T12:23:18.455Z,393
2022-09-20T12:24:18.455Z,486
2022-09-20T12:25:18.452Z,468
2022-09-20T12:26:18.486Z,446
2022-09-20T12:27:18.453Z,365
2022-09-20T12:28:18.455Z,295
2022-09-20T12:29:18.474Z,274
2022-09-20T12:30:18.461Z,336
2022-09-20T12:31:18.640Z,371
2022-09-20T12:32:18.473Z,378
2022-09-20T12:33:18.461Z,385
2022-09-20T12:34:18.464Z,262
2022-09-20T12:35:18.454Z,259
2022-09-20T12:36:18.450Z,299
2022-09-20T12:37:18.457Z,296
2022-09-20T12:38:18.470Z,350
2022-09-20T12:39:23.289Z,366
2022-09-20T12:40:18.501Z,360
2022-09-20T12:41:27.547Z,362
2022-09-20T12:42:18.467Z,376
2022-09-20T12:43:18.458Z,394
2022-09-20T12:44:18.482Z,376
2022-09-20T12:45:18.455Z,339
2022-09-20T12:46:18.515Z,332
2022-09-20T12:47:18.503Z,252
2022-09-20T12:48:18.492Z,242
2022-09-20T12:49:18.468Z,271
2022-09-20T12:50:18.454Z,225
2022-09-20T12:51:18.460Z,300
2022-09-20T12:52:18.461Z,290
2022-09-20T12:53:18.476Z,511
2022-09-20T12:54:18.461Z,444
2022-09-20T12:55:18.461Z,479
2022-09-20T12:56:18.463Z,490
2022-09-20T12:57:18.471Z,526
2022-09-20T12:58:18.464Z,507
2022-09-20T12:59:18.469Z,496
2022-09-20T13:00:18.520Z,423
2022-09-20T13:01:18.566Z,476
2022-09-20T13:02:18.513Z,451
2022-09-20T13:03:18.464Z,0
2022-09-20T13:04:18.483Z,94
2022-09-20T13:05:18.472Z,0
2022-09-20T13:06:18.480Z,0
2022-09-20T13:07:18.469Z,0
2022-09-20T13:08:18.464Z,0
2022-09-20T13:09:18.472Z,0
2022-09-20T13:10:18.475Z,0
2022-09-20T13:11:18.467Z,0
2022-09-20T13:12:18.464Z,0
2022-09-20T13:14:18.468Z,0
2022-09-20T13:15:18.483Z,0
2022-09-20T13:16:18.498Z,0
2022-09-20T13:17:18.471Z,0
2022-09-20T13:18:18.477Z,0
2022-09-20T13:19:18.475Z,0
2022-09-20T13:20:18.477Z,0
2022-09-20T13:21:18.480Z,0
2022-09-20T13:22:18.469Z,0
2022-09-20T13:23:18.472Z,0
2022-09-20T13:24:18.511Z,0
2022-09-20T13:25:18.475Z,0
2022-09-20T13:26:18.472Z,0
2022-09-20T13:27:19.804Z,0
2022-09-20T13:29:18.476Z,0
2022-09-20T13:30:18.472Z,0
2022-09-20T13:31:18.583Z,0
2022-09-20T13:32:18.475Z,0
2022-09-20T13:33:18.472Z,0
2022-09-20T13:35:18.470Z,0
2022-09-20T13:36:18.480Z,0
2022-09-20T13:37:18.475Z,0
2022-09-20T13:38:18.479Z,0
2022-09-20T13:39:18.475Z,0
2022-09-20T13:40:18.544Z,0
2022-09-20T13:41:18.474Z,0
2022-09-20T13:42:18.477Z,0
2022-09-20T13:43:24.136Z,0
2022-09-20T13:44:18.487Z,0
2022-09-20T13:45:18.473Z,0
2022-09-20T13:46:18.585Z,0
2022-09-20T13:47:18.485Z,0
2022-09-20T13:48:18.477Z,0
2022-09-20T13:49:18.489Z,0
2022-09-20T13:50:18.480Z,0
2022-09-20T13:51:18.487Z,0
2022-09-20T13:52:18.480Z,0
2022-09-20T13:53:39.510Z,0
2022-09-20T13:54:18.484Z,0
2022-09-20T13:56:18.484Z,0
2022-09-20T13:57:18.492Z,0
2022-09-20T13:58:18.482Z,0
2022-09-20T13:59:19.383Z,0
2022-09-20T14:00:18.480Z,0
2022-09-20T14:01:18.509Z,0
2022-09-20T14:02:18.551Z,0
2022-09-20T14:03:18.483Z,0
2022-09-20T14:04:18.514Z,0
2022-09-20T14:05:18.503Z,0
2022-09-20T14:06:18.482Z,0
2022-09-20T14:07:18.480Z,0
2022-09-20T14:08:18.490Z,0
2022-09-20T14:09:18.484Z,0
2022-09-20T14:10:18.483Z,0
2022-09-20T14:11:18.481Z,0
2022-09-20T14:12:18.482Z,0
2022-09-20T14:13:18.488Z,0
2022-09-20T14:15:18.486Z,0
2022-09-20T14:16:18.483Z,0
2022-09-20T14:17:18.509Z,0
2022-09-20T14:18:18.491Z,0
2022-09-20T14:19:18.482Z,0
2022-09-20T14:20:18.489Z,0
2022-09-20T14:21:18.565Z,0
2022-09-20T14:22:18.484Z,0
2022-09-20T14:23:18.487Z,0
2022-09-20T14:24:18.490Z,0
2022-09-20T14:25:18.490Z,0
2022-09-20T14:26:18.483Z,0
2022-09-20T14:27:18.495Z,0
2022-09-20T14:28:18.502Z,0
2022-09-20T14:29:18.493Z,0
2022-09-20T14:30:18.487Z,0
2022-09-20T14:31:18.537Z,0
2022-09-20T14:32:18.492Z,0
2022-09-20T14:33:18.522Z,0
2022-09-20T14:34:19.254Z,0
2022-09-20T14:35:18.488Z,0
2022-09-20T14:36:18.486Z,0
2022-09-20T14:37:18.793Z,0
2022-09-20T14:38:18.503Z,0
2022-09-20T14:39:18.499Z,0
2022-09-20T14:40:18.563Z,0
2022-09-20T14:41:18.492Z,0
2022-09-20T14:42:18.485Z,0
2022-09-20T14:43:18.500Z,0
2022-09-20T14:44:18.501Z,0
2022-09-20T14:45:18.497Z,0
2022-09-20T14:46:18.496Z,0
2022-09-20T14:47:18.492Z,0
2022-09-20T14:49:18.496Z,0
2022-09-20T14:50:18.497Z,0
2022-09-20T14:51:18.493Z,0
2022-09-20T14:52:18.500Z,0
2022-09-20T14:53:18.492Z,0
2022-09-20T14:54:18.494Z,0
2022-09-20T14:55:18.506Z,0
2022-09-20T14:56:18.496Z,0
2022-09-20T14:57:18.500Z,0
2022-09-20T14:58:18.501Z,0
2022-09-20T14:59:18.495Z,8
2022-09-20T15:00:18.496Z,90
2022-09-20T15:01:18.542Z,0
2022-09-20T15:02:18.543Z,0
2022-09-20T15:03:18.495Z,0
2022-09-20T15:04:18.591Z,0
2022-09-20T15:05:18.497Z,5
2022-09-20T15:06:18.500Z,44
2022-09-20T15:07:18.499Z,72
2022-09-20T15:08:18.500Z,0
2022-09-20T15:10:18.509Z,0
2022-09-20T15:11:18.494Z,0
2022-09-20T15:12:18.494Z,0
2022-09-20T15:13:18.504Z,25
2022-09-20T15:14:18.535Z,95
2022-09-20T15:15:18.493Z,214
2022-09-20T15:16:18.591Z,272
2022-09-20T15:17:18.500Z,84
2022-09-20T15:18:18.501Z,147
2022-09-20T15:19:18.493Z,137
2022-09-20T15:20:21.919Z,164
2022-09-20T15:21:18.505Z,135
2022-09-20T15:22:18.529Z,139
2022-09-20T15:23:18.505Z,54
2022-09-20T15:24:18.507Z,4
2022-09-20T15:25:18.503Z,0
2022-09-20T15:26:18.514Z,4